Time;durP1;ratioP1;P1;durP2;ratioP2;P2;SDS_P1;SDS_P2;PMS_P1;PMS_P2;Temp;Humidity;BMP_temperature;BMP_pressure;BME280_temperature;BME280_humidity;BME280_pressure;Samples;Min_cycle;Max_cycle;Signal;HPM_P1;HPM_P2
2023/06/20 00:02:10;;;;;;;7.67;6.87;;;;;;;25.47;63.09;99905.34;5069323;28;20253;-62
2023/06/20 00:04:35;;;;;;;9.37;7.63;;;;;;;25.47;62.47;99928.47;5071580;28;20437;-62
2023/06/20 00:07:00;;;;;;;8.23;7.03;;;;;;;25.48;63.01;99935.06;5075902;28;20190;-62
2023/06/20 00:09:26;;;;;;;7.93;6.90;;;;;;;25.47;62.71;99937.13;5085871;28;20477;-62
2023/06/20 00:11:51;;;;;;;12.97;7.43;;;;;;;25.47;62.53;99942.09;5077420;28;20212;-62
2023/06/20 00:14:17;;;;;;;7.83;6.50;;;;;;;25.47;63.18;99940.03;5081641;28;20179;-62
2023/06/20 00:16:42;;;;;;;7.47;6.30;;;;;;;25.46;63.10;99937.56;5089483;28;20185;-63
2023/06/20 00:19:08;;;;;;;7.30;5.90;;;;;;;25.47;62.82;99944.97;5074900;28;20673;-62
2023/06/20 00:21:34;;;;;;;7.73;6.73;;;;;;;25.47;63.10;99956.53;5051225;28;20804;-62
2023/06/20 00:23:59;;;;;;;7.47;6.70;;;;;;;25.46;63.10;99955.75;5087274;28;20193;-62
2023/06/20 00:26:24;;;;;;;6.90;5.70;;;;;;;25.47;62.71;99956.53;5088701;28;20194;-63
2023/06/20 00:28:50;;;;;;;11.00;6.70;;;;;;;25.46;63.30;99949.97;5070930;28;20681;-62
2023/06/20 00:31:16;;;;;;;6.93;6.20;;;;;;;25.46;63.30;99958.63;5068639;28;20217;-62
2023/06/20 00:33:41;;;;;;;7.73;6.23;;;;;;;25.45;63.12;99957.00;5071448;28;21216;-62
2023/06/20 00:36:07;;;;;;;7.30;5.90;;;;;;;25.45;63.17;99965.69;5051114;28;20171;-63
2023/06/20 00:38:32;;;;;;;8.47;6.10;;;;;;;25.45;62.68;99945.44;5071267;28;20200;-62
2023/06/20 00:40:58;;;;;;;6.13;5.53;;;;;;;25.45;62.84;99939.66;5088553;28;20206;-62
2023/06/20 00:43:24;;;;;;;8.50;6.63;;;;;;;25.45;62.78;99938.81;5088465;28;20189;-62
2023/06/20 00:45:50;;;;;;;7.67;6.00;;;;;;;25.45;62.87;99941.72;5068585;28;20174;-62
2023/06/20 00:48:15;;;;;;;7.23;5.90;;;;;;;25.44;62.60;99943.78;5089075;28;20175;-62
2023/06/20 00:50:41;;;;;;;7.73;6.93;;;;;;;25.45;62.59;99933.03;5084794;28;20443;-62
2023/06/20 00:53:06;;;;;;;7.73;6.40;;;;;;;25.45;62.94;99945.44;5088256;28;20162;-62
2023/06/20 00:55:35;;;;;;;8.70;6.43;;;;;;;25.45;63.03;99948.34;5088768;28;20177;-63
2023/06/20 00:58:01;;;;;;;7.47;6.03;;;;;;;25.45;62.87;99945.44;5075070;28;20187;-62
2023/06/20 01:00:38;;;;;;;7.00;6.30;;;;;;;25.44;62.66;99946.66;5068376;28;20443;-63
2023/06/20 01:03:11;;;;;;;9.73;6.30;;;;;;;25.45;63.09;99941.72;5079673;28;21023;-62
2023/06/20 01:05:37;;;;;;;6.90;6.20;;;;;;;25.44;62.62;99943.78;5069518;28;20417;-62
2023/06/20 01:08:55;;;;;;;7.27;5.47;;;;;;;25.45;62.63;99950.38;5070026;28;20529;-62
2023/06/20 01:11:42;;;;;;;6.90;6.00;;;;;;;25.44;62.68;99940.88;5011796;28;20188;-62
2023/06/20 01:14:26;;;;;;;7.23;6.53;;;;;;;25.43;62.79;99939.25;5025569;28;20554;-62
2023/06/20 01:17:00;;;;;;;7.10;6.33;;;;;;;25.43;62.68;99936.38;5061017;28;20424;-62
2023/06/20 01:19:53;;;;;;;7.33;6.33;;;;;;;25.43;63.18;99921.13;5067949;28;20427;-62
2023/06/20 01:22:50;;;;;;;7.73;5.90;;;;;;;25.42;62.89;99914.50;5073156;28;21053;-62
2023/06/20 01:25:52;;;;;;;7.60;6.20;;;;;;;25.43;62.96;99921.91;5086413;28;20404;-62
2023/06/20 01:28:27;;;;;;;7.27;5.93;;;;;;;25.43;62.78;99919.03;5068095;28;20397;-62
2023/06/20 01:31:03;;;;;;;6.90;6.00;;;;;;;25.43;62.57;99915.34;5050086;28;20436;-62
2023/06/20 01:33:35;;;;;;;6.67;5.97;;;;;;;25.42;62.98;99908.72;5053186;28;20849;-62
2023/06/20 01:36:01;;;;;;;8.40;6.23;;;;;;;25.42;62.70;99911.63;5070079;28;20397;-62
2023/06/20 01:38:27;;;;;;;8.97;6.63;;;;;;;25.42;63.10;99908.72;5061495;28;20444;-62
2023/06/20 01:40:52;;;;;;;9.37;6.20;;;;;;;25.42;62.97;99910.78;5048232;28;20170;-62
2023/06/20 01:43:19;;;;;;;7.27;6.30;;;;;;;25.42;63.26;99905.84;5079095;28;20443;-62
2023/06/20 01:45:44;;;;;;;13.60;6.87;;;;;;;25.42;63.06;99908.72;5046109;28;20175;-62
2023/06/20 01:48:10;;;;;;;9.03;7.03;;;;;;;25.42;63.25;99910.78;5048670;28;20412;-62
2023/06/20 01:50:35;;;;;;;8.90;6.77;;;;;;;25.41;62.87;99901.31;5067868;28;20190;-62
2023/06/20 01:53:01;;;;;;;8.23;6.60;;;;;;;25.41;63.17;99912.03;5049044;28;20590;-62
2023/06/20 01:55:28;;;;;;;7.70;6.60;;;;;;;25.42;62.95;99911.63;5060631;28;20279;-62
2023/06/20 01:57:55;;;;;;;8.57;6.90;;;;;;;25.41;63.34;99907.09;5067006;28;20218;-62
2023/06/20 02:00:22;;;;;;;9.17;6.67;;;;;;;25.41;63.09;99909.16;5051389;28;20460;-62
2023/06/20 02:02:47;;;;;;;7.57;6.77;;;;;;;25.41;63.52;99900.47;5075886;28;20457;-62
2023/06/20 02:05:12;;;;;;;9.47;6.53;;;;;;;25.41;62.87;99900.47;5049303;28;20854;-62
2023/06/20 02:07:38;;;;;;;7.00;6.30;;;;;;;25.40;63.14;99898.84;5067405;28;20669;-62
2023/06/20 02:10:04;;;;;;;7.27;6.30;;;;;;;25.40;63.63;99891.00;5067185;28;20171;-62
2023/06/20 02:12:29;;;;;;;10.40;6.90;;;;;;;25.41;63.08;99886.84;5081896;28;20187;-62
2023/06/20 02:14:54;;;;;;;6.67;6.07;;;;;;;25.41;63.36;99883.13;5087212;28;20635;-62
2023/06/20 02:17:20;;;;;;;7.03;6.17;;;;;;;25.40;63.32;99884.41;5079747;28;20947;-62
2023/06/20 02:19:45;;;;;;;7.57;5.83;;;;;;;25.40;63.46;99888.13;5067335;28;20174;-62
2023/06/20 02:22:13;;;;;;;7.00;6.20;;;;;;;25.40;63.24;99882.34;5032663;28;20194;-63
2023/06/20 02:24:38;;;;;;;12.10;6.40;;;;;;;25.40;63.43;99882.34;5081623;28;20182;-62
2023/06/20 02:27:04;;;;;;;8.37;6.60;;;;;;;25.41;63.33;99883.97;5069393;28;20485;-62
2023/06/20 02:29:37;;;;;;;7.13;6.30;;;;;;;25.39;63.35;99880.69;5052340;28;20186;-62
2023/06/20 02:32:03;;;;;;;8.30;6.60;;;;;;;25.40;62.92;99875.72;5070272;28;20178;-62
2023/06/20 02:34:29;;;;;;;7.53;6.60;;;;;;;25.40;62.98;99869.94;5049564;28;20425;-62
2023/06/20 02:36:55;;;;;;;7.90;6.83;;;;;;;25.39;62.78;99863.34;5049353;28;20159;-62
2023/06/20 02:39:21;;;;;;;8.13;6.37;;;;;;;25.40;63.36;99867.88;5032871;28;20154;-62
2023/06/20 02:41:46;;;;;;;7.83;6.50;;;;;;;25.40;63.04;99867.88;5070528;28;20480;-62
2023/06/20 02:44:12;;;;;;;8.80;6.37;;;;;;;25.40;63.31;99865.00;5087229;28;20163;-62
2023/06/20 02:46:52;;;;;;;7.50;6.50;;;;;;;25.39;63.08;99863.34;5087154;28;20170;-62
2023/06/20 02:49:36;;;;;;;6.63;5.53;;;;;;;25.40;62.83;99862.09;5087541;28;20181;-62
2023/06/20 02:52:17;;;;;;;7.43;6.73;;;;;;;25.40;62.83;99882.34;5086100;28;20424;-62
2023/06/20 02:55:12;;;;;;;7.90;6.77;;;;;;;25.41;62.97;99883.13;5091645;28;20423;-62
2023/06/20 02:57:38;;;;;;;8.63;6.70;;;;;;;25.39;63.34;99880.69;5091199;28;20832;-62
2023/06/20 03:00:09;;;;;;;9.10;7.43;;;;;;;25.39;63.41;99889.34;5067013;28;21262;-62
2023/06/20 03:02:34;;;;;;;6.57;5.90;;;;;;;25.39;62.83;99888.56;5081250;28;20520;-62
2023/06/20 03:05:00;;;;;;;7.30;6.30;;;;;;;25.37;63.03;99888.97;5052910;28;20417;-62
2023/06/20 03:07:26;;;;;;;7.20;5.83;;;;;;;25.38;63.10;99899.28;5066883;28;20202;-62
2023/06/20 03:09:51;;;;;;;8.07;7.20;;;;;;;25.38;63.42;99890.63;5090693;28;20207;-62
2023/06/20 03:12:17;;;;;;;7.77;6.20;;;;;;;25.38;62.82;99898.47;5068671;28;20201;-62
2023/06/20 03:14:42;;;;;;;7.50;6.40;;;;;;;25.38;63.18;99902.19;5072760;28;20183;-62
2023/06/20 03:17:07;;;;;;;7.80;6.40;;;;;;;25.38;63.09;99902.19;5057829;28;20220;-62
2023/06/20 03:19:33;;;;;;;7.73;6.93;;;;;;;25.39;62.95;99909.59;5085935;28;20179;-62
2023/06/20 03:21:58;;;;;;;7.17;5.93;;;;;;;25.37;62.80;99897.66;5090102;28;20202;-62
2023/06/20 03:24:24;;;;;;;8.83;6.90;;;;;;;25.38;63.17;99902.19;5089412;28;20166;-62
2023/06/20 03:26:49;;;;;;;7.33;6.53;;;;;;;25.38;62.67;99905.06;5087031;28;20182;-62
2023/06/20 03:29:15;;;;;;;7.07;6.07;;;;;;;25.38;62.71;99901.38;5086923;28;20178;-62
2023/06/20 03:31:40;;;;;;;7.20;6.20;;;;;;;25.38;63.19;99907.16;5089174;28;20171;-62
2023/06/20 03:34:06;;;;;;;8.20;7.10;;;;;;;25.37;63.21;99899.72;5089215;28;20204;-62
2023/06/20 03:36:31;;;;;;;8.30;6.30;;;;;;;25.37;63.03;99903.44;5084249;28;20175;-62
2023/06/20 03:38:56;;;;;;;7.13;6.40;;;;;;;25.37;63.06;99906.31;5088129;28;20249;-62
2023/06/20 03:41:22;;;;;;;8.13;6.47;;;;;;;25.38;63.10;99912.94;5088529;28;20202;-62
2023/06/20 03:43:47;;;;;;;6.83;6.13;;;;;;;25.37;63.01;99905.50;5070591;28;20177;-62
2023/06/20 03:46:13;;;;;;;7.70;6.50;;;;;;;25.37;62.68;99915.00;5077207;28;20198;-62
2023/06/20 03:48:38;;;;;;;8.77;6.57;;;;;;;25.36;62.88;99910.47;5072426;28;20178;-62
2023/06/20 03:51:03;;;;;;;7.73;6.67;;;;;;;25.37;62.98;99917.88;5084319;28;20209;-62
2023/06/20 03:53:29;;;;;;;6.43;5.80;;;;;;;25.36;63.10;99916.25;5069472;28;20175;-62
2023/06/20 03:55:54;;;;;;;9.60;6.40;;;;;;;25.36;62.64;99915.44;5051543;28;20752;-62
2023/06/20 03:58:20;;;;;;;9.30;6.70;;;;;;;25.36;62.71;99910.47;5071636;28;20222;-63
2023/06/20 04:00:46;;;;;;;7.63;6.80;;;;;;;25.36;62.67;99910.47;5069530;28;20171;-62
2023/06/20 04:03:11;;;;;;;9.40;6.97;;;;;;;25.36;62.85;99910.47;5070809;28;20272;-62
2023/06/20 04:05:37;;;;;;;7.50;6.40;;;;;;;25.37;62.77;99925.72;5069225;28;20409;-62
2023/06/20 04:08:03;;;;;;;7.47;6.60;;;;;;;25.36;62.63;99918.31;5087458;28;20237;-62
2023/06/20 04:10:28;;;;;;;7.50;6.37;;;;;;;25.36;62.86;99927.81;5087141;28;20174;-62
2023/06/20 04:12:54;;;;;;;7.50;6.70;;;;;;;25.36;62.53;99919.16;5081149;28;20190;-62
2023/06/20 04:15:19;;;;;;;8.33;6.80;;;;;;;25.36;62.82;99918.31;5088973;28;20174;-62
2023/06/20 04:17:45;;;;;;;7.37;6.57;;;;;;;25.36;62.76;99922.03;5083388;28;20183;-62
2023/06/20 04:20:13;;;;;;;7.80;6.67;;;;;;;25.35;62.89;99920.41;5089223;28;20186;-62
2023/06/20 04:22:44;;;;;;;7.70;6.23;;;;;;;25.35;62.80;99920.41;5088930;28;20202;-62
2023/06/20 04:25:10;;;;;;;7.40;6.47;;;;;;;25.35;63.15;99919.56;5089194;28;21002;-62
2023/06/20 04:27:35;;;;;;;7.63;6.37;;;;;;;25.36;62.67;99929.88;5073241;28;20441;-62
2023/06/20 04:30:01;;;;;;;8.50;6.80;;;;;;;25.35;62.91;99920.41;5069111;28;20182;-62
2023/06/20 04:32:26;;;;;;;6.23;5.63;;;;;;;25.35;62.67;99926.19;5074766;28;20709;-62
2023/06/20 04:34:52;;;;;;;7.23;6.50;;;;;;;25.36;63.00;99927.00;5089113;28;20974;-62
2023/06/20 04:37:18;;;;;;;7.43;6.60;;;;;;;25.35;62.93;99929.09;5089050;28;20258;-62
2023/06/20 04:39:44;;;;;;;7.57;6.87;;;;;;;25.36;62.73;99927.00;5088946;28;20487;-62
2023/06/20 04:42:09;;;;;;;7.07;5.93;;;;;;;25.38;62.39;99924.50;5080571;28;20487;-62
2023/06/20 04:44:35;;;;;;;7.93;6.60;;;;;;;25.39;62.67;99932.72;5088649;28;20514;-62
2023/06/20 04:47:02;;;;;;;9.13;6.70;;;;;;;25.40;62.41;99928.59;5083823;28;20674;-62
2023/06/20 04:49:28;;;;;;;7.27;5.90;;;;;;;25.42;62.12;99931.00;5068686;28;20203;-62
2023/06/20 04:51:53;;;;;;;7.53;6.37;;;;;;;25.42;63.01;99933.91;5068338;28;20394;-62
2023/06/20 04:54:19;;;;;;;8.63;6.57;;;;;;;25.43;62.39;99927.69;5086608;28;20540;-63
2023/06/20 04:56:45;;;;;;;7.63;6.83;;;;;;;25.43;62.58;99927.69;5079665;28;20187;-62
2023/06/20 04:59:11;;;;;;;7.73;6.57;;;;;;;25.43;62.48;99927.69;5068334;28;20227;-62
2023/06/20 05:01:37;;;;;;;8.27;6.80;;;;;;;25.44;62.47;99926.44;5052939;28;20497;-62
2023/06/20 05:04:03;;;;;;;7.00;6.13;;;;;;;25.44;62.53;99929.31;5068343;28;20938;-62
2023/06/20 05:06:29;;;;;;;7.73;6.60;;;;;;;25.45;62.22;99931.00;5051373;28;20468;-62
2023/06/20 05:08:54;;;;;;;6.90;6.17;;;;;;;25.46;62.13;99928.91;5078040;28;20256;-62
2023/06/20 05:11:20;;;;;;;7.20;6.40;;;;;;;25.47;62.43;99934.25;5088869;28;20155;-62
2023/06/20 05:13:45;;;;;;;7.47;6.60;;;;;;;25.47;62.35;99937.13;5069703;28;20178;-62
2023/06/20 05:16:11;;;;;;;7.63;6.83;;;;;;;25.48;62.62;99932.97;5083435;28;20204;-62
2023/06/20 05:18:36;;;;;;;7.60;6.67;;;;;;;25.48;62.65;99935.06;5068037;28;20181;-62
2023/06/20 05:21:01;;;;;;;8.90;7.47;;;;;;;25.48;63.00;99935.88;5068130;28;20841;-62
2023/06/20 05:23:27;;;;;;;7.57;6.80;;;;;;;25.49;62.24;99928.84;5050049;28;20523;-63
2023/06/20 05:25:53;;;;;;;6.70;5.97;;;;;;;25.50;62.50;99930.50;5081964;28;20190;-63
2023/06/20 05:28:18;;;;;;;7.93;6.37;;;;;;;25.50;62.06;99923.88;5087864;28;20171;-62
2023/06/20 05:30:44;;;;;;;6.90;5.87;;;;;;;25.49;63.38;99931.72;5088298;28;20453;-63
2023/06/20 05:33:09;;;;;;;7.77;6.30;;;;;;;25.48;63.16;99935.88;5088151;28;20608;-62
2023/06/20 05:35:35;;;;;;;8.50;7.33;;;;;;;25.47;62.48;99939.19;5084150;28;20197;-62
2023/06/20 05:38:00;;;;;;;9.37;7.60;;;;;;;25.46;62.65;99926.84;5086422;28;20198;-62
2023/06/20 05:40:26;;;;;;;11.70;8.03;;;;;;;25.45;63.01;99928.09;5080761;28;20637;-62
2023/06/20 05:42:51;;;;;;;8.50;7.20;;;;;;;25.45;62.40;99922.31;5080982;28;20534;-62
2023/06/20 05:45:17;;;;;;;8.13;7.27;;;;;;;25.45;62.69;99928.09;5073867;28;20175;-62
2023/06/20 05:47:44;;;;;;;9.73;7.53;;;;;;;25.46;62.93;99932.63;5075844;28;20167;-62
2023/06/20 05:50:09;;;;;;;8.50;7.60;;;;;;;25.47;62.75;99931.34;5074850;28;20692;-62
2023/06/20 05:52:36;;;;;;;8.60;7.20;;;;;;;25.47;63.27;99927.63;5058639;28;20520;-62
2023/06/20 05:55:03;;;;;;;9.20;7.63;;;;;;;25.46;62.63;99929.72;5076608;28;20254;-62
2023/06/20 05:57:28;;;;;;;9.27;7.43;;;;;;;25.48;62.74;99935.06;5075321;28;20424;-62
2023/06/20 05:59:53;;;;;;;13.20;8.40;;;;;;;25.49;62.80;99930.91;5076205;28;20476;-62
2023/06/20 06:02:21;;;;;;;9.60;7.90;;;;;;;25.50;63.21;99923.88;5055679;28;20206;-62
2023/06/20 06:04:47;;;;;;;8.43;7.33;;;;;;;25.51;63.28;99923.44;5078166;28;20607;-62
2023/06/20 06:07:13;;;;;;;8.80;7.90;;;;;;;25.52;63.18;99924.25;5074596;28;20444;-62
2023/06/20 06:09:38;;;;;;;9.50;8.17;;;;;;;25.54;63.04;99934.13;5070146;28;21043;-62
2023/06/20 06:12:04;;;;;;;9.47;7.30;;;;;;;25.56;62.57;99922.94;5086811;28;20645;-62
2023/06/20 06:14:29;;;;;;;9.93;7.73;;;;;;;25.55;63.42;99930.00;5087755;28;20619;-62
2023/06/20 06:16:55;;;;;;;9.10;7.70;;;;;;;25.55;62.64;99927.09;5071471;28;20916;-62
2023/06/20 06:19:21;;;;;;;9.80;8.50;;;;;;;25.54;63.16;99922.56;5071170;28;20212;-62
2023/06/20 06:21:47;;;;;;;10.83;7.20;;;;;;;25.52;63.26;99927.97;5086881;28;20281;-62
2023/06/20 06:24:13;;;;;;;9.87;7.50;;;;;;;25.49;62.82;99920.16;5087349;28;20424;-62
2023/06/20 06:26:38;;;;;;;11.50;8.00;;;;;;;25.50;63.31;99927.59;5080025;28;20186;-62
2023/06/20 06:29:06;;;;;;;11.57;7.50;;;;;;;25.49;62.76;99925.94;5076414;28;20194;-62
2023/06/20 06:31:35;;;;;;;11.40;7.87;;;;;;;25.48;62.80;99918.53;5070886;28;20171;-62
2023/06/20 06:34:01;;;;;;;8.70;7.40;;;;;;;25.46;62.97;99923.13;5073079;28;20927;-62
2023/06/20 06:36:31;;;;;;;8.57;7.37;;;;;;;25.53;64.08;99920.13;5077112;28;20421;-62
2023/06/20 06:38:56;;;;;;;16.97;10.87;;;;;;;25.64;64.90;99917.88;5054208;28;20416;-63
2023/06/20 06:41:21;;;;;;;23.33;12.83;;;;;;;25.82;65.40;99922.09;5054425;28;20765;-62
2023/06/20 06:43:47;;;;;;;22.80;12.50;;;;;;;25.86;66.55;99917.06;5088426;28;20545;-63
2023/06/20 06:46:12;;;;;;;23.57;12.33;;;;;;;25.77;66.51;99919.69;5071083;28;20868;-62
2023/06/20 06:48:38;;;;;;;15.13;10.33;;;;;;;25.78;67.23;99921.31;5067247;28;20514;-62
2023/06/20 06:51:03;;;;;;;13.83;10.07;;;;;;;25.89;67.51;99915.38;5058895;28;20178;-62
2023/06/20 06:53:29;;;;;;;16.73;10.40;;;;;;;25.87;66.63;99907.13;5083185;28;20618;-62
2023/06/20 06:55:54;;;;;;;12.63;10.23;;;;;;;25.83;67.03;99909.25;5075772;28;20194;-63
2023/06/20 06:58:19;;;;;;;14.63;10.03;;;;;;;25.84;66.33;99912.97;5070768;28;20247;-63
2023/06/20 07:00:45;;;;;;;16.37;9.53;;;;;;;25.83;66.44;99906.38;5084003;28;20182;-63
2023/06/20 07:03:11;;;;;;;11.33;8.73;;;;;;;25.85;65.99;99912.50;5085902;28;20186;-63
2023/06/20 07:05:37;;;;;;;16.67;8.57;;;;;;;25.82;65.16;99910.53;5086601;28;20255;-62
2023/06/20 07:08:02;;;;;;;14.87;9.13;;;;;;;25.81;64.56;99913.84;5074750;28;20183;-63
2023/06/20 07:10:28;;;;;;;11.10;8.77;;;;;;;25.81;64.34;99916.72;5069914;28;20421;-62
2023/06/20 07:12:53;;;;;;;12.60;8.67;;;;;;;25.82;65.22;99913.41;5065304;28;20175;-62
2023/06/20 07:15:18;;;;;;;14.40;9.23;;;;;;;25.81;64.78;99914.69;5070278;28;20241;-62
2023/06/20 07:17:44;;;;;;;14.97;9.03;;;;;;;25.83;65.34;99914.22;5076610;28;20190;-62
2023/06/20 07:20:10;;;;;;;18.13;10.00;;;;;;;25.82;65.46;99916.31;5082323;28;20231;-62
2023/06/20 07:22:35;;;;;;;11.00;8.80;;;;;;;25.83;64.65;99912.16;5085347;28;20209;-62
2023/06/20 07:25:01;;;;;;;13.50;10.40;;;;;;;25.83;64.35;99912.16;5087559;28;20179;-62
2023/06/20 07:27:26;;;;;;;11.40;8.57;;;;;;;25.82;64.19;99909.69;5087541;28;20174;-62
2023/06/20 07:29:52;;;;;;;11.27;8.90;;;;;;;25.78;64.23;99909.75;5086296;28;20183;-62
2023/06/20 07:32:19;;;;;;;9.40;8.07;;;;;;;25.80;64.15;99906.44;5070258;28;20179;-63
2023/06/20 07:34:44;;;;;;;17.53;10.60;;;;;;;25.84;65.02;99907.19;5089033;28;20171;-63
2023/06/20 07:37:10;;;;;;;13.17;9.07;;;;;;;25.83;65.45;99908.41;5085393;28;20439;-62
2023/06/20 07:39:39;;;;;;;17.60;9.43;;;;;;;25.84;65.39;99919.56;5088309;28;20174;-63
2023/06/20 07:42:05;;;;;;;17.47;8.30;;;;;;;25.88;65.17;99907.91;5072791;28;20278;-62
2023/06/20 07:44:31;;;;;;;10.60;8.10;;;;;;;25.86;64.90;99910.44;5088275;28;20446;-62
2023/06/20 07:46:56;;;;;;;13.80;10.10;;;;;;;25.85;64.96;99915.41;5084522;28;20178;-62
2023/06/20 07:49:21;;;;;;;12.70;9.30;;;;;;;25.85;64.95;99911.72;5056423;28;20186;-63
2023/06/20 07:51:47;;;;;;;11.40;8.20;;;;;;;25.84;64.07;99910.88;5082597;28;20254;-63
2023/06/20 07:54:14;;;;;;;10.87;9.03;;;;;;;25.83;64.40;99917.09;5089891;28;20173;-63
2023/06/20 07:56:39;;;;;;;12.73;9.30;;;;;;;25.83;64.37;99915.03;5083792;28;20630;-63
2023/06/20 07:59:05;;;;;;;12.30;9.77;;;;;;;25.82;63.84;99916.31;5068814;28;20560;-62
2023/06/20 08:01:31;;;;;;;24.63;9.10;;;;;;;25.84;62.87;99912.97;5071596;28;20815;-62
2023/06/20 08:03:56;;;;;;;13.80;8.93;;;;;;;25.82;62.37;99909.69;5077587;28;20308;-62
2023/06/20 08:06:22;;;;;;;9.87;7.97;;;;;;;25.81;62.00;99900.22;5059646;28;20453;-63
2023/06/20 08:08:47;;;;;;;14.50;10.30;;;;;;;25.80;63.51;99906.44;5056984;28;20183;-62
2023/06/20 08:11:13;;;;;;;13.23;9.27;;;;;;;25.82;62.76;99901.84;5081999;28;20174;-63
2023/06/20 08:13:38;;;;;;;12.20;9.10;;;;;;;25.83;64.26;99902.63;5064150;28;20193;-62
2023/06/20 08:16:04;;;;;;;9.43;8.50;;;;;;;25.82;62.99;99904.72;5077315;28;20179;-62
2023/06/20 08:18:29;;;;;;;10.50;8.30;;;;;;;25.82;62.44;99892.34;5068631;28;20182;-62
2023/06/20 08:20:55;;;;;;;12.10;8.30;;;;;;;25.83;63.02;99902.63;5070685;28;20198;-61
2023/06/20 08:23:26;;;;;;;10.53;8.50;;;;;;;25.85;62.41;99903.84;5068547;28;20741;-61
2023/06/20 08:25:53;;;;;;;11.07;8.13;;;;;;;25.84;62.65;99899.31;5073692;28;20174;-61
2023/06/20 08:28:19;;;;;;;13.17;8.33;;;;;;;25.85;62.29;99895.16;5083147;28;20417;-61
2023/06/20 08:30:44;;;;;;;11.40;8.60;;;;;;;25.85;62.12;99900.13;5067824;28;21271;-61
2023/06/20 08:33:10;;;;;;;12.07;8.30;;;;;;;25.84;61.87;99893.53;5071269;28;20182;-61
2023/06/20 08:35:35;;;;;;;10.53;7.70;;;;;;;25.85;61.50;99898.03;5087050;28;20181;-61
2023/06/20 08:38:01;;;;;;;10.13;7.60;;;;;;;25.86;61.31;99890.19;5077185;28;20179;-61
2023/06/20 08:40:26;;;;;;;11.57;7.50;;;;;;;25.86;61.13;99885.25;5082208;28;20853;-61
2023/06/20 08:42:54;;;;;;;11.00;7.87;;;;;;;25.85;61.38;99874.91;5084408;28;20225;-61
2023/06/20 08:45:20;;;;;;;10.27;7.73;;;;;;;25.86;61.25;99882.34;5082577;28;20261;-61
2023/06/20 08:47:46;;;;;;;9.77;7.47;;;;;;;25.85;61.14;99886.47;5073177;28;20874;-61
2023/06/20 08:50:12;;;;;;;9.40;7.37;;;;;;;25.86;61.31;99873.69;5087145;28;20235;-61
2023/06/20 08:52:47;;;;;;;9.43;7.60;;;;;;;25.87;60.76;99869.53;5083417;28;20174;-61
2023/06/20 08:55:14;;;;;;;8.90;7.53;;;;;;;25.89;60.61;99869.09;5067582;28;20425;-61
2023/06/20 08:57:40;;;;;;;10.80;6.93;;;;;;;25.91;60.41;99876.09;5071126;28;20514;-62
2023/06/20 09:00:07;;;;;;;10.50;7.80;;;;;;;25.88;61.10;99861.63;5072457;28;20476;-61
2023/06/20 09:02:33;;;;;;;8.60;7.10;;;;;;;25.89;60.02;99867.00;5067279;28;20203;-61
2023/06/20 09:05:02;;;;;;;12.80;8.43;;;;;;;25.86;60.49;99865.00;5070095;28;20433;-61
2023/06/20 09:07:36;;;;;;;10.67;7.70;;;;;;;25.88;60.04;99868.25;5075147;28;20298;-61
2023/06/20 09:10:02;;;;;;;9.67;7.33;;;;;;;25.89;60.35;99866.19;5073997;28;20424;-61
2023/06/20 09:12:27;;;;;;;11.17;7.20;;;;;;;25.89;59.86;99860.41;5074866;28;21073;-61
2023/06/20 09:14:53;;;;;;;10.83;8.10;;;;;;;25.90;59.50;99862.81;5068399;28;20210;-61
2023/06/20 09:17:19;;;;;;;11.70;7.43;;;;;;;25.89;59.62;99863.28;5039036;28;20241;-61
2023/06/20 09:19:45;;;;;;;8.23;7.00;;;;;;;25.87;59.78;99860.84;5077699;28;20232;-61
2023/06/20 09:22:12;;;;;;;8.03;6.67;;;;;;;25.89;59.93;99860.41;5065322;28;20534;-61
2023/06/20 09:24:44;;;;;;;9.30;6.97;;;;;;;25.87;59.80;99845.53;5067061;28;20417;-62
2023/06/20 09:27:10;;;;;;;9.10;7.77;;;;;;;25.88;60.50;99859.56;5068628;28;20437;-61
2023/06/20 09:29:51;;;;;;;11.40;7.93;;;;;;;25.92;59.29;99859.53;5072775;28;20763;-61
2023/06/20 09:32:23;;;;;;;8.40;7.00;;;;;;;25.89;59.27;99855.41;5082779;28;20193;-61
2023/06/20 09:34:49;;;;;;;9.00;6.63;;;;;;;25.89;60.37;99852.53;5080500;28;20425;-61
2023/06/20 09:37:16;;;;;;;11.77;8.03;;;;;;;25.90;60.22;99859.13;5050155;28;20429;-61
2023/06/20 09:39:42;;;;;;;10.40;7.77;;;;;;;25.91;59.98;99867.41;5075637;28;20455;-61
2023/06/20 09:42:13;;;;;;;10.87;6.93;;;;;;;25.91;60.33;99867.41;5054005;28;20507;-61
2023/06/20 09:44:40;;;;;;;12.00;7.57;;;;;;;25.93;59.22;99864.88;5067620;28;20235;-61
2023/06/20 09:47:06;;;;;;;8.83;6.97;;;;;;;25.92;58.87;99863.25;5047320;28;21450;-61
2023/06/20 09:49:31;;;;;;;9.27;7.60;;;;;;;25.93;58.95;99859.09;5047664;28;20433;-61
2023/06/20 09:52:03;;;;;;;13.20;7.87;;;;;;;25.93;59.08;99864.06;5069967;28;20182;-61
2023/06/20 09:54:37;;;;;;;8.20;6.83;;;;;;;25.93;58.63;99864.06;5050552;28;20542;-61
2023/06/20 09:57:04;;;;;;;8.33;6.60;;;;;;;25.93;58.26;99870.66;5083950;28;20416;-61
2023/06/20 09:59:31;;;;;;;9.57;7.37;;;;;;;25.91;59.01;99861.63;5052698;28;20926;-61
2023/06/20 10:01:57;;;;;;;10.13;6.73;;;;;;;25.90;59.04;99868.63;5055040;28;20929;-61
2023/06/20 10:04:22;;;;;;;10.30;6.90;;;;;;;25.91;58.92;99869.44;5071997;28;20425;-61
2023/06/20 10:06:48;;;;;;;9.60;6.97;;;;;;;25.91;59.17;99857.88;5059201;28;20502;-61
2023/06/20 10:09:13;;;;;;;11.53;7.20;;;;;;;25.92;59.02;99866.16;5074460;28;20198;-61
2023/06/20 10:11:39;;;;;;;9.17;6.80;;;;;;;25.92;58.65;99860.38;5084529;28;20178;-61
2023/06/20 10:14:05;;;;;;;11.50;7.30;;;;;;;25.93;59.20;99861.16;5052310;28;20658;-61
2023/06/20 10:16:30;;;;;;;9.23;7.40;;;;;;;25.93;58.52;99864.06;5052649;28;20432;-61
2023/06/20 10:18:56;;;;;;;11.80;8.20;;;;;;;25.94;58.19;99854.13;5075974;28;20187;-61
2023/06/20 10:21:59;;;;;;;9.50;6.53;;;;;;;25.95;58.31;99862.34;5074347;28;20190;-61
2023/06/20 10:24:28;;;;;;;8.03;6.10;;;;;;;25.98;58.08;99854.88;5075960;28;20244;-61
2023/06/20 10:26:54;;;;;;;8.07;6.33;;;;;;;25.94;58.33;99842.56;5088415;28;20875;-61
2023/06/20 10:29:20;;;;;;;9.47;7.20;;;;;;;25.92;58.07;99845.91;5087118;28;20485;-61
2023/06/20 10:32:09;;;;;;;10.10;6.43;;;;;;;25.91;58.50;99838.47;5088945;28;20178;-61
2023/06/20 10:34:38;;;;;;;9.43;6.97;;;;;;;25.90;58.29;99836.78;5069731;28;20865;-61
2023/06/20 10:37:25;;;;;;;12.53;6.80;;;;;;;25.88;58.91;99832.72;5070326;28;20429;-61
2023/06/20 10:39:52;;;;;;;10.10;7.07;;;;;;;25.88;59.15;99827.75;5073055;28;20427;-61
2023/06/20 10:42:38;;;;;;;8.90;6.97;;;;;;;25.90;58.44;99825.22;5074499;28;20461;-61
2023/06/20 10:45:23;;;;;;;12.83;6.97;;;;;;;25.90;58.01;99827.31;5083506;28;20870;-61
2023/06/20 10:47:49;;;;;;;7.63;6.27;;;;;;;25.90;58.07;99831.00;5074140;28;20540;-61
2023/06/20 10:50:14;;;;;;;8.00;6.30;;;;;;;25.89;58.18;99835.16;5051846;28;20408;-61
2023/06/20 10:52:40;;;;;;;9.97;7.00;;;;;;;25.91;58.78;99837.63;5070006;28;20179;-61
2023/06/20 10:55:12;;;;;;;9.63;6.43;;;;;;;25.90;58.36;99836.78;5071746;28;20638;-61
2023/06/20 10:57:45;;;;;;;11.03;7.67;;;;;;;25.94;57.49;99834.69;5078699;28;20233;-61
2023/06/20 11:00:14;;;;;;;8.43;5.90;;;;;;;25.93;57.49;99835.94;5085976;28;20554;-61
2023/06/20 11:02:40;;;;;;;10.10;6.90;;;;;;;25.95;58.14;99835.50;5074044;28;20572;-61
2023/06/20 11:05:06;;;;;;;10.30;6.53;;;;;;;25.94;57.53;99828.09;5070450;28;20425;-61
2023/06/20 11:07:31;;;;;;;9.07;6.80;;;;;;;25.92;57.55;99827.72;5074592;28;20603;-61
2023/06/20 11:09:57;;;;;;;9.53;6.60;;;;;;;25.91;57.56;99826.91;5070352;28;20428;-62
2023/06/20 11:12:22;;;;;;;8.17;7.17;;;;;;;25.93;57.70;99823.56;5072428;28;20183;-61
2023/06/20 11:14:47;;;;;;;7.90;6.07;;;;;;;25.93;57.40;99826.44;5076178;28;21096;-61
2023/06/20 11:17:13;;;;;;;8.77;6.20;;;;;;;25.96;56.81;99822.69;5073316;28;20179;-61
2023/06/20 11:19:38;;;;;;;11.37;7.10;;;;;;;25.98;57.06;99831.72;5081851;28;20235;-61
2023/06/20 11:22:04;;;;;;;9.83;7.13;;;;;;;25.96;56.83;99817.72;5085993;28;20197;-61
2023/06/20 11:24:35;;;;;;;8.90;6.40;;;;;;;25.94;56.91;99816.53;5071290;28;20641;-61
2023/06/20 11:27:11;;;;;;;8.10;5.90;;;;;;;25.92;57.34;99801.69;5066969;28;20193;-61
2023/06/20 11:29:37;;;;;;;10.97;6.70;;;;;;;25.90;57.71;99818.63;5070145;28;20439;-62
2023/06/20 11:32:09;;;;;;;6.80;5.50;;;;;;;25.92;57.31;99805.41;5072962;28;20418;-61